Time;durP1;ratioP1;P1;durP2;ratioP2;P2;SDS_P1;SDS_P2;PMS_P1;PMS_P2;Temp;Humidity;BMP_temperature;BMP_pressure;BME280_temperature;BME280_humidity;BME280_pressure;Samples;Min_cycle;Max_cycle;Signal;HPM_P1;HPM_P2
2021/12/26 00:00:04;;;;;;;6.03;4.07;;;20.00;71.20;;;;;;5028619;28;20467;-69
2021/12/26 00:02:30;;;;;;;7.00;4.47;;;20.30;67.30;;;;;;5027603;28;20423;-69
2021/12/26 00:04:55;;;;;;;6.47;4.23;;;20.10;67.00;;;;;;5027489;28;20651;-69
2021/12/26 00:07:21;;;;;;;3.80;3.37;;;20.60;65.80;;;;;;5027834;28;20260;-68
2021/12/26 00:09:46;;;;;;;8.13;4.60;;;20.00;70.30;;;;;;5027776;28;20641;-69
2021/12/26 00:12:12;;;;;;;11.00;3.83;;;;;;;;;;5030212;28;20197;-69
2021/12/26 00:14:40;;;;;;;6.20;4.47;;;19.90;58.80;;;;;;5031722;28;20676;-68
2021/12/26 00:17:05;;;;;;;7.57;4.20;;;19.90;70.70;;;;;;5032106;28;20486;-68
2021/12/26 00:19:31;;;;;;;5.93;3.93;;;20.20;65.40;;;;;;5032050;28;20439;-69
2021/12/26 00:21:56;;;;;;;4.33;3.60;;;20.10;70.30;;;;;;5031842;28;20181;-69
2021/12/26 00:24:22;;;;;;;3.80;3.37;;;20.20;70.00;;;;;;5031496;28;20196;-69
2021/12/26 00:26:48;;;;;;;6.60;4.40;;;20.30;71.20;;;;;;5031567;28;20186;-68
2021/12/26 00:29:13;;;;;;;7.47;3.90;;;19.90;68.30;;;;;;5031418;28;20184;-69
2021/12/26 00:31:39;;;;;;;5.63;3.83;;;20.10;71.20;;;;;;5048832;28;20212;-69
2021/12/26 00:34:05;;;;;;;7.27;4.80;;;20.30;65.50;;;;;;5051381;28;20199;-69
2021/12/26 00:36:30;;;;;;;4.13;3.13;;;19.90;71.70;;;;;;5043430;28;20173;-68
2021/12/26 00:38:56;;;;;;;6.60;3.97;;;;;;;;;;5031424;28;20255;-69
2021/12/26 00:41:22;;;;;;;5.00;3.80;;;20.00;65.10;;;;;;5031214;28;20181;-68
2021/12/26 00:43:48;;;;;;;6.90;4.30;;;;;;;;;;5031065;28;20427;-69
2021/12/26 00:46:14;;;;;;;4.10;3.50;;;20.10;65.20;;;;;;5031273;28;20196;-69
2021/12/26 00:48:40;;;;;;;4.43;3.80;;;20.30;70.80;;;;;;5031182;28;20459;-69
2021/12/26 00:51:05;;;;;;;5.47;4.10;;;20.40;70.50;;;;;;5030858;28;20668;-69
2021/12/26 00:53:33;;;;;;;5.33;3.60;;;22.40;66.70;;;;;;5031323;28;20758;-69
2021/12/26 00:55:59;;;;;;;5.43;3.27;;;20.10;70.30;;;;;;5031034;28;20196;-68
2021/12/26 00:58:24;;;;;;;8.70;3.87;;;20.00;66.20;;;;;;5030911;28;20411;-69
2021/12/26 01:00:51;;;;;;;3.30;3.00;;;20.00;71.10;;;;;;5030851;28;20427;-69
2021/12/26 01:03:17;;;;;;;7.80;3.70;;;21.50;66.10;;;;;;5030823;28;20199;-69
2021/12/26 01:05:47;;;;;;;3.57;3.23;;;20.10;65.50;;;;;;5030788;28;20412;-69
2021/12/26 01:08:15;;;;;;;4.57;3.60;;;20.00;70.00;;;;;;5030859;28;20407;-69
2021/12/26 01:10:55;;;;;;;3.73;3.47;;;19.80;65.10;;;;;;5048221;28;20585;-69
2021/12/26 01:13:32;;;;;;;3.63;2.97;;;20.00;64.90;;;;;;5048358;28;20411;-69
2021/12/26 01:16:00;;;;;;;5.33;3.43;;;20.20;70.40;;;;;;5050576;28;20414;-69
2021/12/26 01:18:29;;;;;;;6.37;3.70;;;19.90;71.00;;;;;;5050623;28;20597;-69
2021/12/26 01:21:04;;;;;;;3.63;3.30;;;19.90;65.00;;;;;;5050394;28;20418;-69
2021/12/26 01:23:30;;;;;;;4.03;3.60;;;19.50;70.70;;;;;;5049882;28;20418;-68
2021/12/26 01:25:57;;;;;;;4.13;3.40;;;20.00;71.50;;;;;;5050295;28;20410;-68
2021/12/26 01:28:28;;;;;;;3.50;3.17;;;20.00;70.00;;;;;;5050232;28;20470;-68
2021/12/26 01:30:55;;;;;;;3.83;2.73;;;19.90;69.90;;;;;;5050252;28;20554;-69
2021/12/26 01:33:20;;;;;;;4.50;3.63;;;19.90;71.10;;;;;;5049999;28;20411;-68
2021/12/26 01:35:47;;;;;;;3.53;2.83;;;20.00;70.60;;;;;;5048236;28;20802;-68
2021/12/26 01:38:14;;;;;;;3.93;3.40;;;20.00;70.20;;;;;;5030207;28;20619;-69
2021/12/26 01:40:57;;;;;;;3.90;2.97;;;20.00;51.90;;;;;;5030143;28;20415;-69
2021/12/26 01:43:31;;;;;;;3.10;2.77;;;19.40;70.00;;;;;;5047767;28;20498;-69
2021/12/26 01:45:57;;;;;;;3.97;3.03;;;20.40;54.20;;;;;;5050051;28;20409;-69
2021/12/26 01:48:23;;;;;;;5.27;3.30;;;19.80;70.10;;;;;;5049858;28;20442;-69
2021/12/26 01:50:51;;;;;;;4.33;3.27;;;19.90;69.30;;;;;;5049515;28;20588;-69
2021/12/26 01:53:19;;;;;;;3.30;3.00;;;19.80;64.70;;;;;;5049566;28;20222;-69
2021/12/26 01:55:46;;;;;;;3.50;3.07;;;19.80;70.60;;;;;;5049576;28;20438;-69
2021/12/26 01:58:25;;;;;;;3.23;2.93;;;19.80;71.10;;;;;;5049682;28;20437;-69
2021/12/26 02:00:59;;;;;;;3.40;3.10;;;19.90;51.70;;;;;;5049599;28;20418;-68
2021/12/26 02:03:24;;;;;;;3.23;2.93;;;19.30;68.90;;;;;;5049576;28;20502;-68
2021/12/26 02:05:50;;;;;;;3.13;2.83;;;20.10;71.10;;;;;;5049750;28;20452;-68
2021/12/26 02:08:17;;;;;;;3.23;2.97;;;21.40;52.50;;;;;;5049547;28;20180;-69
2021/12/26 02:10:43;;;;;;;3.23;2.77;;;19.90;51.70;;;;;;5049525;28;20203;-68
2021/12/26 02:13:09;;;;;;;3.00;2.70;;;19.50;69.20;;;;;;5031143;28;20506;-69
2021/12/26 02:15:35;;;;;;;3.50;3.20;;;19.90;51.70;;;;;;5029669;28;20290;-69
2021/12/26 02:18:02;;;;;;;3.23;3.00;;;19.90;69.50;;;;;;5029818;28;20177;-68
2021/12/26 02:21:00;;;;;;;3.93;3.17;;;19.90;69.90;;;;;;5029546;28;20507;-69
2021/12/26 02:23:32;;;;;;;4.03;3.30;;;20.30;69.80;;;;;;5047482;28;20493;-69
2021/12/26 02:28:46;;;;;;;2.73;2.50;;;19.90;51.60;;;;;;5049122;28;20487;-69
2021/12/26 02:31:14;;;;;;;3.43;2.90;;;19.90;51.70;;;;;;5049054;28;20495;-68
2021/12/26 02:33:40;;;;;;;3.23;2.97;;;20.00;51.70;;;;;;5049090;28;20445;-69
2021/12/26 02:36:06;;;;;;;2.93;2.73;;;19.90;51.60;;;;;;5041108;28;20498;-69
2021/12/26 02:38:32;;;;;;;2.77;2.57;;;19.90;51.60;;;;;;5045568;28;20695;-69
2021/12/26 02:40:59;;;;;;;3.20;2.70;;;19.80;70.50;;;;;;5048876;28;20474;-68
2021/12/26 02:43:26;;;;;;;3.10;2.80;;;20.10;68.80;;;;;;5049150;28;20426;-69
2021/12/26 02:45:52;;;;;;;3.37;3.07;;;20.00;69.60;;;;;;5049132;28;20847;-69
2021/12/26 02:48:18;;;;;;;3.10;2.80;;;20.00;69.90;;;;;;5049070;28;20457;-69
2021/12/26 02:50:46;;;;;;;2.80;2.60;;;19.90;51.10;;;;;;5048742;28;20543;-69
2021/12/26 02:53:20;;;;;;;3.30;3.00;;;19.80;69.40;;;;;;5048806;28;20415;-69
2021/12/26 02:55:47;;;;;;;2.80;2.60;;;19.90;51.60;;;;;;5049011;28;20442;-69
2021/12/26 02:58:12;;;;;;;2.07;1.97;;;19.80;51.50;;;;;;5049057;28;20973;-69
2021/12/26 03:00:43;;;;;;;3.33;2.80;;;20.00;51.60;;;;;;5048592;28;20447;-69
2021/12/26 03:03:09;;;;;;;2.10;2.00;;;19.90;51.60;;;;;;5048896;28;20168;-69
2021/12/26 03:05:37;;;;;;;2.47;2.37;;;19.80;51.50;;;;;;5048378;28;20584;-69
2021/12/26 03:08:05;;;;;;;3.07;2.50;;;19.90;51.60;;;;;;5048755;28;20176;-68
2021/12/26 03:10:31;;;;;;;2.43;2.23;;;19.70;65.90;;;;;;5048523;28;20422;-69
2021/12/26 03:13:02;;;;;;;2.63;2.43;;;19.80;51.50;;;;;;5031599;28;20415;-68
2021/12/26 03:15:29;;;;;;;3.10;2.73;;;19.60;68.30;;;;;;5028346;28;20306;-69
2021/12/26 03:17:56;;;;;;;3.13;2.57;;;19.60;69.10;;;;;;5028361;28;20407;-69
2021/12/26 03:20:25;;;;;;;2.53;2.33;;;19.60;50.80;;;;;;5045605;28;20539;-69
2021/12/26 03:22:51;;;;;;;2.27;2.07;;;19.80;51.50;;;;;;5048447;28;20430;-69
2021/12/26 03:25:22;;;;;;;2.97;2.70;;;19.80;51.50;;;;;;5048001;28;20492;-69
2021/12/26 03:27:49;;;;;;;2.20;2.10;;;19.80;51.40;;;;;;5048448;28;20214;-69
2021/12/26 03:30:21;;;;;;;2.40;2.30;;;19.80;51.50;;;;;;5048306;28;20500;-69
2021/12/26 03:32:47;;;;;;;2.53;2.33;;;19.80;51.50;;;;;;5048335;28;20462;-69
2021/12/26 03:35:13;;;;;;;2.43;2.23;;;19.80;51.40;;;;;;5048044;28;20449;-68
2021/12/26 03:37:40;;;;;;;2.40;2.03;;;19.80;51.50;;;;;;5028212;28;20474;-69
2021/12/26 03:40:07;;;;;;;2.27;2.17;;;20.00;51.50;;;;;;5028116;28;20243;-68
2021/12/26 03:42:33;;;;;;;1.90;1.80;;;19.80;51.40;;;;;;5028148;28;20419;-69
2021/12/26 03:44:58;;;;;;;1.77;1.67;;;19.80;51.60;;;;;;5028063;28;20442;-69
2021/12/26 03:47:24;;;;;;;3.00;2.80;;;20.40;51.90;;;;;;5028181;28;20791;-69
2021/12/26 03:49:52;;;;;;;1.93;1.83;;;19.80;51.60;;;;;;5027995;28;20189;-69
2021/12/26 03:52:18;;;;;;;2.40;2.10;;;19.90;70.30;;;;;;5027625;28;20558;-69
2021/12/26 03:54:44;;;;;;;2.30;2.10;;;20.10;51.60;;;;;;5027935;28;20442;-69
2021/12/26 03:57:09;;;;;;;2.20;2.00;;;19.80;51.50;;;;;;5027940;28;20180;-69
2021/12/26 03:59:35;;;;;;;2.27;2.07;;;19.80;51.40;;;;;;5027903;28;20231;-69
2021/12/26 04:02:00;;;;;;;2.00;1.87;;;19.70;51.50;;;;;;5028060;28;20185;-68
2021/12/26 04:04:26;;;;;;;2.63;2.43;;;19.90;51.50;;;;;;5028030;28;20255;-68
2021/12/26 04:06:52;;;;;;;2.30;2.00;;;19.80;51.40;;;;;;5027800;28;20274;-68
2021/12/26 04:09:18;;;;;;;2.33;2.13;;;19.80;51.40;;;;;;5027753;28;20599;-68
2021/12/26 04:11:45;;;;;;;2.77;2.57;;;19.70;51.40;;;;;;5029634;28;20572;-69
2021/12/26 04:14:15;;;;;;;3.40;2.73;;;19.50;64.30;;;;;;5027626;28;20426;-69
2021/12/26 04:16:41;;;;;;;2.00;1.90;;;19.80;69.10;;;;;;5044598;28;20469;-68
2021/12/26 04:19:07;;;;;;;1.90;1.80;;;19.70;51.50;;;;;;5047645;28;20439;-69
2021/12/26 04:21:33;;;;;;;1.80;1.70;;;19.90;70.20;;;;;;5047405;28;20176;-68
2021/12/26 04:23:59;;;;;;;2.43;2.33;;;19.70;51.40;;;;;;5047405;28;20289;-69
2021/12/26 04:26:25;;;;;;;2.20;2.10;;;19.70;69.00;;;;;;5047334;28;20202;-69
2021/12/26 04:28:51;;;;;;;2.13;1.93;;;19.40;69.50;;;;;;5047338;28;20430;-68
2021/12/26 04:31:16;;;;;;;1.70;1.60;;;19.70;51.50;;;;;;5047429;28;20210;-68
2021/12/26 04:33:42;;;;;;;2.13;1.93;;;19.70;51.50;;;;;;5047465;28;20202;-68
2021/12/26 04:36:08;;;;;;;2.20;2.10;;;19.70;51.50;;;;;;5040229;28;20176;-69
2021/12/26 04:38:35;;;;;;;1.90;1.80;;;19.70;51.60;;;;;;5027101;28;20435;-68
2021/12/26 04:41:03;;;;;;;1.70;1.60;;;19.70;51.40;;;;;;5027726;28;20262;-68
2021/12/26 04:43:29;;;;;;;1.90;1.80;;;19.90;70.20;;;;;;5027603;28;20459;-69
2021/12/26 04:45:55;;;;;;;2.00;1.90;;;19.70;51.40;;;;;;5027624;28;20503;-69
2021/12/26 04:48:21;;;;;;;1.67;1.57;;;19.20;68.80;;;;;;5027659;28;20419;-68
2021/12/26 04:50:47;;;;;;;2.30;1.83;;;19.90;51.50;;;;;;5027051;28;20201;-68
2021/12/26 04:53:12;;;;;;;1.67;1.57;;;20.10;69.60;;;;;;5027466;28;20185;-69
2021/12/26 04:55:38;;;;;;;1.73;1.63;;;19.80;70.40;;;;;;5027429;28;20287;-68
2021/12/26 04:58:04;;;;;;;1.60;1.50;;;19.80;51.50;;;;;;5027595;28;20183;-69
2021/12/26 05:00:31;;;;;;;1.80;1.70;;;20.00;70.80;;;;;;5030924;28;20177;-68
2021/12/26 05:02:58;;;;;;;1.63;1.53;;;19.60;63.70;;;;;;5030986;28;20191;-68
2021/12/26 05:05:28;;;;;;;1.50;1.40;;;19.70;51.40;;;;;;5044195;28;20454;-69
2021/12/26 05:07:54;;;;;;;2.43;1.80;;;19.70;68.50;;;;;;5030839;28;20473;-68
2021/12/26 05:10:20;;;;;;;1.80;1.70;;;19.60;51.30;;;;;;5030761;28;20510;-68
2021/12/26 05:12:47;;;;;;;2.43;2.23;;;19.70;51.40;;;;;;5032515;28;20458;-68
2021/12/26 05:15:13;;;;;;;1.60;1.50;;;19.60;69.30;;;;;;5030564;28;20489;-69
2021/12/26 05:17:42;;;;;;;2.50;1.70;;;19.70;51.40;;;;;;5047812;28;20558;-68
2021/12/26 05:20:09;;;;;;;1.73;1.63;;;19.80;51.50;;;;;;5050419;28;20564;-68
2021/12/26 05:22:34;;;;;;;1.93;1.83;;;19.70;51.40;;;;;;5050166;28;20509;-69
2021/12/26 05:25:00;;;;;;;2.27;2.07;;;19.70;51.40;;;;;;5050249;28;20877;-68
2021/12/26 05:27:25;;;;;;;2.70;1.80;;;20.10;51.70;;;;;;5050327;28;20675;-68
2021/12/26 05:29:51;;;;;;;1.97;1.60;;;19.80;51.60;;;;;;5050180;28;20176;-68
2021/12/26 05:32:17;;;;;;;1.93;1.77;;;19.80;51.50;;;;;;5050211;28;20231;-69
2021/12/26 05:34:42;;;;;;;1.80;1.70;;;19.40;69.20;;;;;;5050193;28;20278;-68
2021/12/26 05:37:08;;;;;;;1.63;1.40;;;19.60;51.30;;;;;;5037231;28;20788;-68
2021/12/26 05:39:34;;;;;;;1.33;1.33;;;19.40;70.00;;;;;;5030090;28;20176;-68
2021/12/26 05:41:59;;;;;;;1.67;1.67;;;19.70;68.30;;;;;;5030110;28;20183;-69
2021/12/26 05:44:25;;;;;;;2.30;1.73;;;19.70;51.60;;;;;;5045173;28;20211;-69
2021/12/26 05:46:50;;;;;;;1.90;1.80;;;20.20;70.30;;;;;;5049947;28;20679;-68
2021/12/26 05:49:16;;;;;;;1.43;1.40;;;19.80;51.50;;;;;;5050113;28;20498;-68
2021/12/26 05:51:42;;;;;;;2.20;2.00;;;19.60;51.40;;;;;;5050187;28;20638;-68
2021/12/26 05:54:09;;;;;;;1.47;1.37;;;19.90;51.50;;;;;;5050526;28;20269;-68
2021/12/26 05:56:35;;;;;;;1.87;1.70;;;19.60;51.50;;;;;;5050420;28;20415;-68
2021/12/26 05:59:00;;;;;;;3.10;1.93;;;19.70;51.50;;;;;;5049154;28;20963;-68
2021/12/26 06:01:26;;;;;;;2.00;1.90;;;19.60;51.50;;;;;;5050189;28;20182;-68
2021/12/26 06:03:52;;;;;;;1.70;1.60;;;19.60;51.40;;;;;;5050212;28;20366;-69
2021/12/26 06:06:17;;;;;;;2.03;1.70;;;20.00;51.70;;;;;;5050178;28;20591;-68
2021/12/26 06:08:43;;;;;;;1.60;1.50;;;19.80;51.60;;;;;;5049957;28;20510;-68
2021/12/26 06:11:09;;;;;;;3.60;1.73;;;19.60;51.40;;;;;;5049923;28;20195;-68
2021/12/26 06:13:34;;;;;;;1.87;1.77;;;19.50;69.50;;;;;;5049850;28;20264;-68
2021/12/26 06:16:00;;;;;;;1.67;1.30;;;19.60;51.40;;;;;;5049813;28;20686;-69
2021/12/26 06:18:26;;;;;;;1.87;1.67;;;21.40;52.30;;;;;;5049943;28;20543;-69
2021/12/26 06:20:52;;;;;;;1.80;1.70;;;19.30;51.20;;;;;;5049801;28;20406;-70
2021/12/26 06:23:17;;;;;;;1.70;1.60;;;19.80;63.80;;;;;;5049800;28;20183;-68
2021/12/26 06:25:43;;;;;;;1.50;1.40;;;19.80;51.60;;;;;;5049944;28;20180;-68
2021/12/26 06:28:09;;;;;;;1.90;1.80;;;19.60;51.50;;;;;;5049757;28;20692;-68
2021/12/26 06:30:35;;;;;;;1.47;1.37;;;19.80;51.60;;;;;;5049776;28;20259;-69
2021/12/26 06:33:00;;;;;;;1.60;1.50;;;19.20;68.60;;;;;;5049608;28;20175;-68
2021/12/26 06:35:26;;;;;;;1.83;1.73;;;19.50;51.40;;;;;;5049348;28;20433;-68
2021/12/26 06:37:52;;;;;;;1.20;1.20;;;19.50;69.40;;;;;;5049550;28;20194;-68
2021/12/26 06:40:18;;;;;;;1.70;1.60;;;19.70;51.60;;;;;;5049522;28;20215;-68
2021/12/26 06:42:45;;;;;;;3.43;1.97;;;19.70;51.60;;;;;;5049384;28;20262;-69
2021/12/26 06:45:15;;;;;;;1.70;1.60;;;19.80;51.70;;;;;;5049534;28;20188;-69
2021/12/26 06:47:45;;;;;;;2.07;1.97;;;19.60;51.50;;;;;;5049236;28;20524;-68
2021/12/26 06:50:11;;;;;;;1.50;1.40;;;19.30;51.30;;;;;;5049137;28;20930;-69
2021/12/26 06:52:37;;;;;;;1.80;1.70;;;19.50;51.40;;;;;;5049076;28;20458;-68
2021/12/26 06:55:03;;;;;;;1.90;1.80;;;19.60;51.50;;;;;;5049152;28;20184;-68
2021/12/26 06:57:29;;;;;;;1.77;1.67;;;19.60;51.50;;;;;;5049338;28;20183;-68
2021/12/26 06:59:55;;;;;;;1.67;1.57;;;19.60;51.60;;;;;;5049199;28;20403;-68
2021/12/26 07:02:20;;;;;;;1.53;1.43;;;19.80;51.70;;;;;;5049253;28;20649;-68
2021/12/26 07:04:46;;;;;;;1.77;1.67;;;19.60;51.60;;;;;;5049139;28;20429;-69
2021/12/26 07:07:13;;;;;;;1.67;1.57;;;20.40;52.00;;;;;;5047874;28;20587;-68
2021/12/26 07:09:39;;;;;;;1.50;1.40;;;19.50;70.00;;;;;;5049139;28;20517;-68
2021/12/26 07:12:06;;;;;;;2.40;1.23;;;19.60;51.70;;;;;;5048786;28;20954;-68
2021/12/26 07:14:31;;;;;;;1.40;1.10;;;19.60;51.60;;;;;;5048900;28;20426;-68
2021/12/26 07:16:57;;;;;;;2.73;1.40;;;19.60;51.60;;;;;;5043427;28;20418;-68
2021/12/26 07:19:22;;;;;;;1.20;1.20;;;19.60;51.60;;;;;;5048772;28;20543;-68
2021/12/26 07:21:48;;;;;;;1.10;1.00;;;19.60;51.70;;;;;;5048222;28;20183;-68
2021/12/26 07:24:14;;;;;;;1.40;1.40;;;20.10;51.80;;;;;;5048943;28;20207;-68
2021/12/26 07:26:39;;;;;;;1.33;1.23;;;19.60;51.50;;;;;;5048810;28;20607;-68
2021/12/26 07:29:05;;;;;;;1.60;1.50;;;19.60;51.60;;;;;;5048245;28;20167;-68
2021/12/26 07:31:31;;;;;;;1.83;1.10;;;19.60;51.60;;;;;;5044440;28;20200;-68
2021/12/26 07:33:57;;;;;;;1.80;1.70;;;19.80;51.60;;;;;;5043340;28;20267;-69
2021/12/26 07:36:22;;;;;;;2.13;1.80;;;19.70;51.60;;;;;;5048527;28;20425;-69
2021/12/26 07:38:48;;;;;;;1.70;1.60;;;19.60;51.40;;;;;;5048641;28;20170;-68
2021/12/26 07:41:13;;;;;;;1.10;1.10;;;19.60;51.50;;;;;;5048627;28;20593;-68
2021/12/26 07:43:39;;;;;;;1.80;1.70;;;19.60;51.50;;;;;;5048639;28;20191;-68
2021/12/26 07:46:05;;;;;;;1.40;1.33;;;20.90;69.10;;;;;;5048730;28;20226;-69
2021/12/26 07:48:30;;;;;;;1.20;1.10;;;19.70;51.60;;;;;;5048734;28;20171;-68
2021/12/26 07:50:56;;;;;;;1.10;1.10;;;19.70;51.60;;;;;;5048474;28;20290;-68
2021/12/26 07:53:21;;;;;;;1.07;1.07;;;19.90;69.40;;;;;;5048434;28;20229;-68
2021/12/26 07:55:47;;;;;;;1.57;1.47;;;19.40;51.40;;;;;;5048532;28;20179;-69
2021/12/26 07:58:15;;;;;;;1.53;1.43;;;20.10;52.40;;;;;;5048526;28;20167;-69
2021/12/26 08:00:41;;;;;;;1.50;1.40;;;19.70;52.20;;;;;;5048453;28;20407;-69
2021/12/26 08:03:06;;;;;;;1.47;1.47;;;19.70;51.60;;;;;;5048603;28;20560;-68
2021/12/26 08:05:32;;;;;;;2.40;1.20;;;19.70;51.50;;;;;;5048461;28;20199;-68
2021/12/26 08:07:58;;;;;;;1.00;1.00;;;19.70;51.60;;;;;;5048755;28;20566;-68
2021/12/26 08:10:24;;;;;;;1.10;1.00;;;19.70;51.60;;;;;;5048622;28;20688;-68
2021/12/26 08:12:49;;;;;;;1.53;1.43;;;19.70;51.50;;;;;;5048501;28;20647;-69
2021/12/26 08:15:15;;;;;;;1.30;1.20;;;19.70;51.50;;;;;;5048554;28;20306;-68
2021/12/26 08:17:41;;;;;;;1.53;1.43;;;19.70;51.60;;;;;;5048198;28;20168;-68
2021/12/26 08:20:08;;;;;;;2.53;1.13;;;19.70;51.60;;;;;;5048166;28;20213;-68
2021/12/26 08:22:34;;;;;;;1.50;1.40;;;19.70;51.60;;;;;;5048409;28;20666;-69
2021/12/26 08:25:00;;;;;;;1.73;1.63;;;19.80;51.60;;;;;;5048070;28;20438;-69
2021/12/26 08:27:25;;;;;;;1.60;1.50;;;19.70;51.50;;;;;;5048343;28;20500;-68
2021/12/26 08:29:51;;;;;;;1.10;1.10;;;19.70;51.50;;;;;;5048403;28;20180;-68
2021/12/26 08:32:18;;;;;;;1.63;1.23;;;19.80;51.60;;;;;;5047914;28;20208;-68
2021/12/26 08:34:44;;;;;;;1.30;1.30;;;19.80;51.70;;;;;;5051077;28;20278;-68
2021/12/26 08:37:12;;;;;;;2.60;2.40;;;19.80;51.60;;;;;;5052306;28;20532;-69
2021/12/26 08:39:40;;;;;;;3.97;3.67;;;19.80;51.40;;;;;;5052370;28;20410;-69
2021/12/26 08:42:07;;;;;;;4.00;3.70;;;19.70;49.30;;;;;;5052198;28;20442;-69
2021/12/26 08:44:34;;;;;;;5.90;5.40;;;19.50;62.80;;;;;;5052130;28;20453;-69
2021/12/26 08:47:00;;;;;;;5.57;5.07;;;19.30;63.30;;;;;;5052261;28;20847;-67
2021/12/26 08:49:27;;;;;;;4.77;4.47;;;19.50;45.60;;;;;;5052106;28;20410;-68
2021/12/26 08:51:53;;;;;;;4.13;3.93;;;19.10;46.50;;;;;;5051540;28;20565;-68
2021/12/26 08:54:19;;;;;;;3.67;3.27;;;18.70;47.20;;;;;;5051844;28;20509;-67
2021/12/26 08:56:45;;;;;;;4.30;3.53;;;18.70;47.60;;;;;;5051763;28;20201;-68
2021/12/26 08:59:10;;;;;;;2.97;2.77;;;19.10;48.10;;;;;;5051860;28;20407;-67
2021/12/26 09:01:36;;;;;;;5.27;2.70;;;18.90;48.20;;;;;;5051691;28;20251;-68
2021/12/26 09:04:03;;;;;;;17.73;6.33;;;18.80;48.00;;;;;;5051686;28;20200;-68
2021/12/26 09:06:29;;;;;;;64.07;21.50;;;;;;;;;;5051343;28;20957;-68
2021/12/26 09:08:55;;;;;;;135.73;40.27;;;;;;;;;;5051059;28;20406;-68
2021/12/26 09:11:21;;;;;;;92.33;34.17;;;;;;;;;;5051201;28;20492;-69
2021/12/26 09:13:47;;;;;;;145.97;48.27;;;19.10;49.70;;;;;;5051399;28;21066;-68
2021/12/26 09:16:13;;;;;;;133.80;43.30;;;19.10;63.50;;;;;;5050051;28;20517;-68
2021/12/26 09:18:39;;;;;;;126.07;45.63;;;19.20;51.40;;;;;;5051275;28;20540;-68
2021/12/26 09:21:05;;;;;;;139.03;45.17;;;19.20;48.60;;;;;;5049448;28;20426;-67
2021/12/26 09:23:31;;;;;;;140.90;44.60;;;19.00;63.10;;;;;;5050738;28;20494;-68
2021/12/26 10:53:39;;;;;;;87.47;33.97;;;19.50;64.90;;;;;;5065223;28;20936;-69
2021/12/26 10:56:08;;;;;;;101.87;37.77;;;19.40;50.10;;;;;;5065543;28;20390;-69
2021/12/26 10:58:36;;;;;;;105.20;37.67;;;19.50;50.20;;;;;;5065573;28;20175;-69
2021/12/26 11:01:02;;;;;;;123.13;39.90;;;19.90;50.50;;;;;;5065554;28;20404;-69
2021/12/26 11:03:29;;;;;;;117.67;40.50;;;19.30;66.60;;;;;;5065223;28;20406;-68
2021/12/26 11:06:01;;;;;;;116.47;42.47;;;19.60;50.70;;;;;;5065380;28;20176;-69
2021/12/26 11:08:30;;;;;;;119.03;42.23;;;19.50;50.70;;;;;;5065431;28;20416;-69
2021/12/26 11:10:57;;;;;;;134.67;45.87;;;19.60;50.80;;;;;;5065385;28;20410;-69
2021/12/26 11:13:25;;;;;;;113.77;40.70;;;19.80;65.80;;;;;;5065191;28;20850;-69
2021/12/26 11:15:58;;;;;;;120.20;41.80;;;19.50;50.90;;;;;;5065498;28;20830;-69
2021/12/26 11:18:24;;;;;;;115.03;42.20;;;19.60;50.90;;;;;;5065230;28;20479;-69
2021/12/26 11:20:58;;;;;;;116.13;38.40;;;19.60;50.90;;;;;;5064983;28;20405;-69
2021/12/26 11:23:28;;;;;;;113.10;40.50;;;19.70;64.00;;;;;;5064960;28;20563;-69
2021/12/26 11:26:02;;;;;;;103.97;37.70;;;19.70;51.00;;;;;;5065212;28;20507;-69
2021/12/26 11:28:30;;;;;;;112.47;41.00;;;19.60;51.00;;;;;;5064923;28;20484;-69
2021/12/26 11:30:59;;;;;;;97.97;34.43;;;19.60;51.00;;;;;;5065011;28;20418;-69
2021/12/26 11:33:25;;;;;;;85.93;33.27;;;19.70;64.00;;;;;;5064599;28;20473;-69
2021/12/26 11:35:52;;;;;;;78.60;29.97;;;19.60;51.00;;;;;;5059848;28;20693;-69
2021/12/26 11:38:22;;;;;;;82.37;32.53;;;19.60;51.00;;;;;;5044989;28;20434;-70
2021/12/26 11:40:50;;;;;;;105.77;35.60;;;19.60;51.10;;;;;;5044746;28;20417;-68
2021/12/26 11:43:43;;;;;;;85.13;30.60;;;19.60;59.00;;;;;;5044887;28;21009;-69
2021/12/26 11:46:32;;;;;;;92.80;30.60;;;19.60;51.00;;;;;;5044989;28;20417;-69
2021/12/26 11:49:30;;;;;;;101.60;34.80;;;19.70;51.10;;;;;;5044658;28;20511;-69
2021/12/26 11:52:23;;;;;;;90.40;30.97;;;19.70;51.10;;;;;;5044410;28;20548;-69
2021/12/26 11:55:10;;;;;;;86.80;32.63;;;19.70;51.10;;;;;;5042940;28;20434;-67
2021/12/26 11:58:31;;;;;;;84.97;29.23;;;19.70;51.00;;;;;;5044420;28;20459;-67
2021/12/26 12:00:59;;;;;;;81.07;28.93;;;19.70;51.10;;;;;;5022203;28;20904;-66
2021/12/26 12:03:30;;;;;;;82.83;30.33;;;19.50;63.60;;;;;;5038516;28;20670;-66
2021/12/26 12:05:57;;;;;;;85.70;29.70;;;20.00;51.90;;;;;;5030979;28;20506;-66
2021/12/26 12:08:23;;;;;;;72.67;28.40;;;19.70;51.30;;;;;;5030907;28;20419;-69
2021/12/26 12:10:57;;;;;;;77.40;26.97;;;19.90;51.40;;;;;;5030669;28;20421;-66
2021/12/26 12:13:23;;;;;;;71.87;26.10;;;19.90;65.30;;;;;;5030223;28;20286;-65
2021/12/26 12:15:50;;;;;;;73.00;28.60;;;19.90;51.40;;;;;;5030687;28;20468;-69
2021/12/26 12:18:26;;;;;;;72.47;29.03;;;19.80;51.50;;;;;;5030741;28;20669;-69
2021/12/26 12:21:09;;;;;;;71.90;27.30;;;19.80;51.40;;;;;;5030834;28;20391;-69
2021/12/26 12:23:37;;;;;;;71.90;28.87;;;19.80;51.50;;;;;;5030684;28;20442;-69
2021/12/26 12:26:03;;;;;;;66.23;26.00;;;19.80;51.40;;;;;;5030718;28;20484;-69
2021/12/26 12:28:41;;;;;;;74.53;28.17;;;19.80;51.40;;;;;;5030746;28;20491;-69
2021/12/26 12:31:07;;;;;;;74.23;26.40;;;20.30;51.70;;;;;;5030664;28;20282;-69
2021/12/26 12:33:34;;;;;;;65.10;25.23;;;20.10;51.60;;;;;;5030271;28;20469;-69
2021/12/26 12:36:10;;;;;;;74.40;28.23;;;19.80;52.00;;;;;;5030607;28;20633;-69
2021/12/26 12:38:38;;;;;;;66.63;24.90;;;20.10;51.60;;;;;;5026705;28;20493;-69
2021/12/26 12:41:08;;;;;;;67.83;25.60;;;19.80;51.40;;;;;;5022173;28;20546;-69
2021/12/26 12:43:44;;;;;;;61.00;25.10;;;19.90;51.50;;;;;;5024855;28;20643;-69
2021/12/26 12:46:11;;;;;;;61.77;23.80;;;19.40;51.30;;;;;;5025372;28;20517;-69
2021/12/26 12:49:07;;;;;;;64.33;24.90;;;19.90;51.50;;;;;;5035481;28;20427;-69
2021/12/26 12:51:37;;;;;;;62.13;22.73;;;19.90;52.00;;;;;;5039227;28;20447;-69
2021/12/26 12:54:23;;;;;;;47.47;20.80;;;20.20;51.60;;;;;;5044625;28;20454;-69
2021/12/26 12:56:49;;;;;;;58.17;21.23;;;19.90;51.30;;;;;;5048352;28;20418;-69
2021/12/26 12:59:20;;;;;;;58.47;22.80;;;19.90;51.20;;;;;;5049194;28;20454;-69
2021/12/26 13:01:54;;;;;;;49.53;20.90;;;19.90;51.30;;;;;;5041886;28;20468;-69
2021/12/26 13:04:25;;;;;;;48.50;18.63;;;19.40;51.00;;;;;;5049789;28;20457;-69
2021/12/26 13:07:01;;;;;;;55.70;22.73;;;19.80;51.10;;;;;;5048413;28;20536;-69
2021/12/26 13:09:28;;;;;;;47.33;19.27;;;20.70;51.60;;;;;;5050174;28;20735;-69
2021/12/26 13:12:08;;;;;;;49.70;19.50;;;20.30;51.90;;;;;;5039769;28;20487;-69
2021/12/26 13:14:40;;;;;;;46.60;19.93;;;19.90;51.10;;;;;;5029673;28;20510;-69
2021/12/26 13:17:10;;;;;;;45.07;17.47;;;19.90;51.00;;;;;;5029400;28;20903;-69
2021/12/26 13:19:36;;;;;;;48.27;18.90;;;19.90;51.10;;;;;;5046048;28;20417;-69
2021/12/26 13:22:02;;;;;;;42.67;18.90;;;19.90;51.10;;;;;;5027580;28;20531;-69
2021/12/26 13:24:37;;;;;;;53.70;18.13;;;19.90;51.00;;;;;;5029627;28;20201;-69
2021/12/26 13:27:04;;;;;;;40.90;17.27;;;19.90;51.10;;;;;;5029620;28;20485;-69
2021/12/26 13:29:30;;;;;;;37.47;16.73;;;19.90;51.00;;;;;;5029676;28;20434;-69
2021/12/26 13:31:56;;;;;;;39.40;17.63;;;20.10;51.10;;;;;;5029328;28;20455;-69
2021/12/26 13:34:23;;;;;;;36.83;15.43;;;19.90;51.00;;;;;;5029571;28;20997;-68
2021/12/26 13:36:48;;;;;;;37.40;16.50;;;19.90;51.00;;;;;;5029400;28;20242;-69
2021/12/26 13:39:24;;;;;;;44.80;16.80;;;19.90;51.00;;;;;;5029431;28;20423;-69
2021/12/26 13:41:53;;;;;;;36.87;16.60;;;19.90;51.60;;;;;;5029418;28;20278;-69
2021/12/26 13:44:21;;;;;;;39.60;15.70;;;19.90;51.00;;;;;;5029102;28;20434;-69
2021/12/26 13:46:57;;;;;;;38.77;15.53;;;19.90;51.00;;;;;;5029351;28;20421;-69
2021/12/26 13:49:23;;;;;;;33.20;15.63;;;19.90;51.00;;;;;;5030296;28;20567;-69
2021/12/26 13:51:55;;;;;;;46.43;16.80;;;20.00;51.10;;;;;;5029270;28;20466;-69
2021/12/26 13:54:28;;;;;;;38.93;15.63;;;19.90;51.00;;;;;;5048983;28;20199;-69
2021/12/26 13:57:02;;;;;;;37.30;15.90;;;19.90;51.00;;;;;;5048951;28;20418;-69
2021/12/26 13:59:35;;;;;;;34.50;14.30;;;19.90;50.90;;;;;;5048890;28;20847;-69
2021/12/26 14:02:02;;;;;;;36.83;14.73;;;19.90;50.90;;;;;;5048526;28;20418;-69
2021/12/26 14:04:28;;;;;;;37.67;15.77;;;19.90;51.00;;;;;;5048592;28;20534;-69
2021/12/26 14:06:54;;;;;;;35.97;14.10;;;19.90;51.00;;;;;;5048695;28;20606;-69
2021/12/26 14:09:20;;;;;;;32.57;12.33;;;20.20;51.10;;;;;;5048729;28;20414;-69
2021/12/26 14:11:46;;;;;;;38.03;16.03;;;19.90;51.00;;;;;;5048620;28;20199;-69
2021/12/26 14:14:11;;;;;;;32.20;14.07;;;20.00;51.00;;;;;;5048464;28;20283;-69
2021/12/26 14:16:43;;;;;;;31.90;14.13;;;19.60;50.80;;;;;;5048646;28;20623;-69